createdAt,value
2023-05-05T00:00:14.257Z,1931.00
2023-05-05T00:01:07.188Z,1932.00
2023-05-05T00:02:07.234Z,1934.00
2023-05-05T00:03:07.286Z,1936.00
2023-05-05T00:04:07.212Z,1938.00
2023-05-05T00:05:07.198Z,1938.00
2023-05-05T00:06:07.230Z,1929.00
2023-05-05T00:07:07.214Z,1935.00
2023-05-05T00:08:07.196Z,1909.00
2023-05-05T00:09:07.212Z,1920.00
2023-05-05T00:10:07.389Z,1915.00
2023-05-05T00:11:07.200Z,1917.00
2023-05-05T00:12:07.205Z,1919.00
2023-05-05T00:13:07.346Z,1922.00
2023-05-05T00:14:07.189Z,1923.00
2023-05-05T00:15:07.186Z,1915.00
2023-05-05T00:16:07.184Z,1915.00
2023-05-05T00:17:07.261Z,1911.00
2023-05-05T00:18:07.211Z,1923.00
2023-05-05T00:19:07.180Z,1899.00
2023-05-05T00:20:07.474Z,1909.00
2023-05-05T00:21:07.216Z,1915.00
2023-05-05T00:22:07.168Z,1903.00
2023-05-05T00:23:07.157Z,1909.00
2023-05-05T00:24:07.170Z,1909.00
2023-05-05T00:25:07.218Z,1900.00
2023-05-05T00:26:07.164Z,1918.00
2023-05-05T00:27:07.205Z,1899.00
2023-05-05T00:28:07.169Z,1891.00
2023-05-05T00:29:07.168Z,1895.00
2023-05-05T00:30:07.385Z,1896.00
2023-05-05T00:31:07.216Z,1889.00
2023-05-05T00:32:07.177Z,1901.00
2023-05-05T00:33:07.148Z,1893.00
2023-05-05T00:34:07.185Z,1883.00
2023-05-05T00:35:07.153Z,1874.00
2023-05-05T00:36:07.145Z,1875.00
2023-05-05T00:37:07.149Z,1889.00
2023-05-05T00:38:07.149Z,1899.00
2023-05-05T00:39:07.150Z,1886.00
2023-05-05T00:40:07.378Z,1862.00
2023-05-05T00:41:07.125Z,1863.00
2023-05-05T00:42:07.129Z,1874.00
2023-05-05T00:43:07.125Z,1872.00
2023-05-05T00:44:07.122Z,1874.00
2023-05-05T00:45:07.141Z,1871.00
2023-05-05T00:46:07.190Z,1872.00
2023-05-05T00:47:07.139Z,1888.00
2023-05-05T00:48:07.178Z,1867.00
2023-05-05T00:49:07.131Z,1881.00
2023-05-05T00:50:07.377Z,1882.00
2023-05-05T00:51:07.073Z,1882.00
2023-05-05T00:52:07.071Z,1888.00
2023-05-05T00:53:07.066Z,1882.00
2023-05-05T00:54:07.071Z,1872.00
2023-05-05T00:55:07.043Z,1866.00
2023-05-05T00:56:07.039Z,1872.00
2023-05-05T00:57:07.024Z,1863.00
2023-05-05T00:58:07.025Z,1873.00
2023-05-05T00:59:07.015Z,1871.00
2023-05-05T01:00:07.093Z,1857.00
2023-05-05T01:01:07.006Z,1862.00
2023-05-05T01:02:06.994Z,1863.00
2023-05-05T01:03:07.074Z,1868.00
2023-05-05T01:04:07.131Z,1858.00
2023-05-05T01:05:06.999Z,1855.00
2023-05-05T01:06:07.040Z,1856.00
2023-05-05T01:07:06.971Z,1857.00
2023-05-05T01:08:06.972Z,1858.00
2023-05-05T01:09:06.992Z,1845.00
2023-05-05T01:10:18.871Z,1847.00
2023-05-05T01:11:07.976Z,1856.00
2023-05-05T01:12:06.946Z,1857.00
2023-05-05T01:13:07.032Z,1864.00
2023-05-05T01:14:06.938Z,1854.00
2023-05-05T01:15:06.942Z,1848.00
2023-05-05T01:16:06.977Z,1859.00
2023-05-05T01:17:06.943Z,1860.00
2023-05-05T01:18:07.034Z,1863.00
2023-05-05T01:19:06.924Z,1848.00
2023-05-05T01:20:07.169Z,1860.00
2023-05-05T01:21:06.948Z,1845.00
2023-05-05T01:22:06.931Z,1848.00
2023-05-05T01:23:07.254Z,1865.00
2023-05-05T01:24:06.902Z,1840.00
2023-05-05T01:25:06.920Z,1851.00
2023-05-05T01:26:06.891Z,1840.00
2023-05-05T01:27:06.895Z,1846.00
2023-05-05T01:28:06.900Z,1846.00
2023-05-05T01:29:06.896Z,1843.00
2023-05-05T01:30:07.236Z,1843.00
2023-05-05T01:31:06.879Z,1826.00
2023-05-05T01:32:06.888Z,1835.00
2023-05-05T01:33:06.879Z,1835.00
2023-05-05T01:34:06.872Z,1836.00
2023-05-05T01:35:06.875Z,1834.00
2023-05-05T01:36:06.875Z,1829.00
2023-05-05T01:37:06.860Z,1835.00
2023-05-05T01:38:06.877Z,1839.00
2023-05-05T01:39:06.846Z,1839.00
2023-05-05T01:40:07.099Z,1807.00
2023-05-05T01:41:06.843Z,1805.00
2023-05-05T01:42:06.830Z,1814.00
2023-05-05T01:43:06.821Z,1826.00
2023-05-05T01:44:06.823Z,1825.00
2023-05-05T01:45:06.849Z,1824.00
2023-05-05T01:46:06.862Z,1807.00
2023-05-05T01:47:06.821Z,1807.00
2023-05-05T01:48:06.846Z,1799.00
2023-05-05T01:49:06.816Z,1808.00
2023-05-05T01:50:06.942Z,1819.00
2023-05-05T01:51:06.874Z,1812.00
2023-05-05T01:52:06.971Z,1795.00
2023-05-05T01:53:06.934Z,1803.00
2023-05-05T01:54:06.980Z,1795.00
2023-05-05T01:55:06.999Z,1818.00
2023-05-05T01:56:07.055Z,1807.00
2023-05-05T01:57:07.085Z,1808.00
2023-05-05T01:58:07.117Z,1798.00
2023-05-05T01:59:07.157Z,1793.00
2023-05-05T02:00:07.358Z,1793.00
2023-05-05T02:01:07.205Z,1794.00
2023-05-05T02:02:07.213Z,1796.00
2023-05-05T02:03:07.234Z,1796.00
2023-05-05T02:04:07.162Z,1797.00
2023-05-05T02:05:07.160Z,1805.00
2023-05-05T02:06:07.181Z,1802.00
2023-05-05T02:07:07.141Z,1803.00
2023-05-05T02:08:07.176Z,1807.00
2023-05-05T02:09:07.144Z,1819.00
2023-05-05T02:10:07.325Z,1791.00
2023-05-05T02:11:07.148Z,1794.00
2023-05-05T02:12:07.173Z,1785.00
2023-05-05T02:13:07.232Z,1796.00
2023-05-05T02:14:07.152Z,1792.00
2023-05-05T02:15:07.140Z,1784.00
2023-05-05T02:16:07.212Z,1781.00
2023-05-05T02:17:07.181Z,1785.00
2023-05-05T02:18:07.215Z,1792.00
2023-05-05T02:19:07.247Z,1778.00
2023-05-05T02:20:07.468Z,1779.00
2023-05-05T02:21:07.248Z,1778.00
2023-05-05T02:22:07.234Z,1781.00
2023-05-05T02:23:07.243Z,1784.00
2023-05-05T02:24:07.241Z,1785.00
2023-05-05T02:25:07.298Z,1775.00
2023-05-05T02:26:07.271Z,1780.00
2023-05-05T02:27:07.275Z,1757.00
2023-05-05T02:28:07.270Z,1761.00
2023-05-05T02:29:07.280Z,1759.00
2023-05-05T02:30:07.602Z,1746.00
2023-05-05T02:31:07.307Z,1761.00
2023-05-05T02:32:07.284Z,1760.00
2023-05-05T02:33:07.256Z,1742.00
2023-05-05T02:34:07.262Z,1759.00
2023-05-05T02:35:07.231Z,1745.00
2023-05-05T02:36:07.228Z,1745.00
2023-05-05T02:37:07.223Z,1746.00
2023-05-05T02:38:07.221Z,1752.00
2023-05-05T02:39:07.206Z,1754.00
2023-05-05T02:40:07.527Z,1760.00
2023-05-05T02:41:07.180Z,1750.00
2023-05-05T02:42:07.168Z,1739.00
2023-05-05T02:43:07.184Z,1727.00
2023-05-05T02:44:07.159Z,1747.00
2023-05-05T02:45:07.156Z,1736.00
2023-05-05T02:46:07.235Z,1743.00
2023-05-05T02:47:07.119Z,1738.00
2023-05-05T02:48:07.173Z,1727.00
2023-05-05T02:49:07.125Z,1730.00
2023-05-05T02:50:07.344Z,1728.00
2023-05-05T02:51:07.159Z,1730.00
2023-05-05T02:52:07.205Z,1722.00
2023-05-05T02:53:07.261Z,1726.00
2023-05-05T02:54:07.372Z,1720.00
2023-05-05T02:55:07.302Z,1718.00
2023-05-05T02:56:07.336Z,1713.00
2023-05-05T02:57:07.376Z,1711.00
2023-05-05T02:58:07.418Z,1702.00
2023-05-05T02:59:07.446Z,1707.00
2023-05-05T03:00:07.704Z,1710.00
2023-05-05T03:01:07.503Z,1711.00
2023-05-05T03:02:07.467Z,1711.00
2023-05-05T03:03:07.559Z,1714.00
2023-05-05T03:04:07.467Z,1717.00
2023-05-05T03:05:07.491Z,1719.00
2023-05-05T03:06:07.457Z,1727.00
2023-05-05T03:07:07.448Z,1738.00
2023-05-05T03:08:07.441Z,1721.00
2023-05-05T03:09:07.408Z,1708.00
2023-05-05T03:10:07.721Z,1721.00
2023-05-05T03:11:07.425Z,1713.00
2023-05-05T03:12:07.391Z,1714.00
2023-05-05T03:13:07.459Z,1701.00
2023-05-05T03:14:07.389Z,1695.00
2023-05-05T03:15:07.375Z,1713.00
2023-05-05T03:16:07.454Z,1718.00
2023-05-05T03:17:07.458Z,1700.00
2023-05-05T03:18:07.632Z,1698.00
2023-05-05T03:19:07.530Z,1695.00
2023-05-05T03:20:07.732Z,1696.00
2023-05-05T03:21:07.536Z,1697.00
2023-05-05T03:22:07.521Z,1686.00
2023-05-05T03:23:07.513Z,1692.00
2023-05-05T03:24:07.498Z,1714.00
2023-05-05T03:25:07.504Z,1710.00
2023-05-05T03:26:07.521Z,1709.00
2023-05-05T03:27:07.483Z,1689.00
2023-05-05T03:28:07.469Z,1688.00
2023-05-05T03:29:07.478Z,1686.00
2023-05-05T03:30:07.792Z,1700.00
2023-05-05T03:31:07.449Z,1693.00
2023-05-05T03:32:07.644Z,1692.00
2023-05-05T03:33:07.621Z,1676.00
2023-05-05T03:34:07.576Z,1681.00
2023-05-05T03:35:07.624Z,1692.00
2023-05-05T03:36:07.728Z,1671.00
2023-05-05T03:37:07.744Z,1662.00
2023-05-05T03:38:07.789Z,1687.00
2023-05-05T03:39:07.820Z,1693.00
2023-05-05T03:40:08.112Z,1687.00
2023-05-05T03:41:07.900Z,1681.00
2023-05-05T03:42:07.946Z,1676.00
2023-05-05T03:43:08.061Z,1675.00
2023-05-05T03:44:08.030Z,1676.00
2023-05-05T03:45:08.002Z,1678.00
2023-05-05T03:46:08.000Z,1668.00
2023-05-05T03:47:07.982Z,1670.00
2023-05-05T03:48:08.094Z,1679.00
2023-05-05T03:49:07.980Z,1680.00
2023-05-05T03:50:08.185Z,1665.00
2023-05-05T03:51:07.982Z,1666.00
2023-05-05T03:52:08.006Z,1675.00
2023-05-05T03:53:07.965Z,1660.00
2023-05-05T03:54:07.955Z,1657.00
2023-05-05T03:55:07.990Z,1654.00
2023-05-05T03:56:08.027Z,1666.00
2023-05-05T03:57:08.098Z,1654.00
2023-05-05T03:58:08.150Z,1650.00
2023-05-05T03:59:08.196Z,1647.00
2023-05-05T04:00:08.387Z,1640.00
2023-05-05T04:01:08.299Z,1646.00
2023-05-05T04:02:08.366Z,1653.00
2023-05-05T04:03:08.620Z,1649.00
2023-05-05T04:04:08.460Z,1647.00
2023-05-05T04:05:08.498Z,1635.00
2023-05-05T04:06:08.555Z,1645.00
2023-05-05T04:07:08.595Z,1618.00
2023-05-05T04:08:08.658Z,1640.00
2023-05-05T04:09:08.698Z,1642.00
2023-05-05T04:10:08.933Z,1641.00
2023-05-05T04:11:08.754Z,1642.00
2023-05-05T04:12:08.743Z,1642.00
2023-05-05T04:13:08.855Z,1642.00
2023-05-05T04:14:08.737Z,1643.00
2023-05-05T04:15:08.740Z,1646.00
2023-05-05T04:16:08.876Z,1642.00
2023-05-05T04:17:08.743Z,1637.00
2023-05-05T04:18:08.812Z,1655.00
2023-05-05T04:19:08.720Z,1640.00
2023-05-05T04:20:08.895Z,1626.00
2023-05-05T04:21:08.714Z,1649.00
2023-05-05T04:22:08.717Z,1659.00
2023-05-05T04:23:08.729Z,1651.00
2023-05-05T04:24:08.733Z,1634.00
2023-05-05T04:25:08.792Z,1639.00
2023-05-05T04:26:08.851Z,1631.00
2023-05-05T04:27:08.897Z,1639.00
2023-05-05T04:28:08.964Z,1636.00
2023-05-05T04:29:09.002Z,1636.00
2023-05-05T04:30:09.252Z,1635.00
2023-05-05T04:31:09.135Z,1639.00
2023-05-05T04:32:09.159Z,1614.00
2023-05-05T04:33:09.193Z,1623.00
2023-05-05T04:34:09.229Z,1635.00
2023-05-05T04:35:09.289Z,1634.00
2023-05-05T04:36:09.356Z,1618.00
2023-05-05T04:37:09.376Z,1608.00
2023-05-05T04:38:09.416Z,1621.00
2023-05-05T04:39:09.416Z,1621.00
2023-05-05T04:40:09.781Z,1621.00
2023-05-05T04:41:09.421Z,1624.00
2023-05-05T04:42:09.422Z,1617.00
2023-05-05T04:43:09.437Z,1610.00
2023-05-05T04:44:09.442Z,1624.00
2023-05-05T04:45:09.423Z,1603.00
2023-05-05T04:46:09.480Z,1604.00
2023-05-05T04:47:09.452Z,1617.00
2023-05-05T04:48:09.585Z,1610.00
2023-05-05T04:49:09.503Z,1599.00
2023-05-05T04:50:09.648Z,1607.00
2023-05-05T04:51:09.489Z,1615.00
2023-05-05T04:52:09.593Z,1621.00
2023-05-05T04:53:09.502Z,1622.00
2023-05-05T04:54:09.492Z,1621.00
2023-05-05T04:55:09.503Z,1618.00
2023-05-05T04:56:09.503Z,1619.00
2023-05-05T04:57:09.485Z,1594.00
2023-05-05T04:58:09.525Z,1604.00
2023-05-05T04:59:09.484Z,1615.00
2023-05-05T05:00:09.757Z,1605.00
2023-05-05T05:01:09.550Z,1601.00
2023-05-05T05:02:09.560Z,1592.00
2023-05-05T05:03:09.616Z,1601.00
2023-05-05T05:04:09.598Z,1601.00
2023-05-05T05:05:09.587Z,1603.00
2023-05-05T05:06:09.578Z,1601.00
2023-05-05T05:07:09.639Z,1598.00
2023-05-05T05:08:09.597Z,1612.00
2023-05-05T05:09:09.599Z,1600.00
2023-05-05T05:10:09.860Z,1592.00
2023-05-05T05:11:09.607Z,1605.00
2023-05-05T05:12:09.640Z,1600.00
2023-05-05T05:13:11.924Z,1603.00
2023-05-05T05:14:09.630Z,1602.00
2023-05-05T05:15:09.642Z,1578.00
2023-05-05T05:16:09.678Z,1584.00
2023-05-05T05:17:09.641Z,1584.00
2023-05-05T05:18:09.641Z,1585.00
2023-05-05T05:19:09.632Z,1585.00
2023-05-05T05:20:10.138Z,1586.00
2023-05-05T05:21:09.634Z,1589.00
2023-05-05T05:22:09.646Z,1589.00
2023-05-05T05:23:09.652Z,1597.00
2023-05-05T05:24:09.611Z,1595.00
2023-05-05T05:25:09.610Z,1589.00
2023-05-05T05:26:09.634Z,1586.00
2023-05-05T05:27:10.168Z,1596.00
2023-05-05T05:28:11.098Z,1581.00
2023-05-05T05:29:09.592Z,1582.00
2023-05-05T05:30:09.856Z,1577.00
2023-05-05T05:31:09.668Z,1581.00
2023-05-05T05:32:09.815Z,1578.00
2023-05-05T05:33:09.800Z,1594.00
2023-05-05T05:34:12.572Z,1579.00
2023-05-05T05:35:09.847Z,1602.00
2023-05-05T05:36:09.855Z,1617.00
2023-05-05T05:37:09.823Z,1604.00
2023-05-05T05:38:09.826Z,1625.00
2023-05-05T05:39:09.804Z,1643.00
2023-05-05T05:40:10.024Z,1667.00
2023-05-05T05:41:09.805Z,1699.00
2023-05-05T05:42:09.822Z,1737.00
2023-05-05T05:43:09.812Z,1776.00
2023-05-05T05:44:09.792Z,1779.00
2023-05-05T05:45:09.769Z,1798.00
2023-05-05T05:46:09.863Z,1860.00
2023-05-05T05:47:09.751Z,1988.00
2023-05-05T05:48:09.838Z,2213.00
2023-05-05T05:49:09.726Z,2304.00
2023-05-05T05:50:10.001Z,2405.00
2023-05-05T05:51:09.710Z,2458.00
2023-05-05T05:52:09.731Z,2546.00
2023-05-05T05:53:09.720Z,2613.00
2023-05-05T05:54:09.659Z,2683.00
2023-05-05T05:55:09.723Z,2735.00
2023-05-05T05:56:09.640Z,2737.00
2023-05-05T05:57:09.701Z,2747.00
2023-05-05T05:58:09.649Z,2784.00
2023-05-05T05:59:09.608Z,2848.00
2023-05-05T06:00:09.844Z,2972.00
2023-05-05T06:01:09.611Z,2745.00
2023-05-05T06:02:09.630Z,2785.00
2023-05-05T06:03:09.786Z,2857.00
2023-05-05T06:04:09.665Z,2991.00
2023-05-05T06:05:09.564Z,3160.00
2023-05-05T06:06:09.548Z,3218.00
2023-05-05T06:07:09.543Z,3248.00
2023-05-05T06:08:09.532Z,3294.00
2023-05-05T06:09:09.517Z,3322.00
2023-05-05T06:10:25.659Z,3370.00
2023-05-05T06:11:10.500Z,3372.00
2023-05-05T06:12:09.498Z,3383.00
2023-05-05T06:13:09.667Z,3405.00
2023-05-05T06:14:09.494Z,3456.00
2023-05-05T06:15:09.501Z,3532.00
2023-05-05T06:16:09.524Z,3559.00
2023-05-05T06:17:09.447Z,3583.00
2023-05-05T06:18:09.492Z,3607.00
2023-05-05T06:19:09.465Z,3610.00
2023-05-05T06:20:09.633Z,3619.00
2023-05-05T06:21:09.399Z,3641.00
2023-05-05T06:22:09.504Z,3689.00
2023-05-05T06:23:09.397Z,3750.00
2023-05-05T06:24:09.604Z,3780.00
2023-05-05T06:25:09.401Z,3797.00
2023-05-05T06:26:09.367Z,3832.00
2023-05-05T06:27:09.365Z,3829.00
2023-05-05T06:28:09.388Z,3854.00
2023-05-05T06:29:11.716Z,3886.00
2023-05-05T06:30:09.824Z,3899.00
2023-05-05T06:31:09.500Z,3923.00
2023-05-05T06:32:09.413Z,3945.00
2023-05-05T06:33:09.451Z,3970.00
2023-05-05T06:34:09.387Z,3996.00
2023-05-05T06:35:09.366Z,4025.00
2023-05-05T06:36:09.373Z,4040.00
2023-05-05T06:37:09.361Z,4042.00
2023-05-05T06:38:09.320Z,4047.00
2023-05-05T06:39:09.297Z,4057.00
2023-05-05T06:40:09.550Z,4043.00
2023-05-05T06:41:09.278Z,4058.00
2023-05-05T06:42:09.296Z,4085.00
2023-05-05T06:43:09.269Z,4140.00
2023-05-05T06:44:09.234Z,4194.00
2023-05-05T06:45:09.259Z,4183.00
2023-05-05T06:46:09.202Z,4174.00
2023-05-05T06:47:09.232Z,4159.00
2023-05-05T06:48:09.319Z,4131.00
2023-05-05T06:49:09.216Z,4091.00
2023-05-05T06:50:09.809Z,4040.00
2023-05-05T06:51:09.364Z,3979.00
2023-05-05T06:52:09.380Z,3933.00
2023-05-05T06:53:10.401Z,3873.00
2023-05-05T06:54:09.501Z,3825.00
2023-05-05T06:55:09.527Z,3766.00
2023-05-05T06:56:09.650Z,3694.00
2023-05-05T06:57:09.572Z,3638.00
2023-05-05T06:58:09.552Z,3622.00
2023-05-05T06:59:09.585Z,3558.00
2023-05-05T07:00:09.692Z,3503.00
2023-05-05T07:01:09.553Z,3466.00
2023-05-05T07:02:09.559Z,3422.00
2023-05-05T07:03:09.556Z,3380.00
2023-05-05T07:04:09.556Z,3341.00
2023-05-05T07:05:09.640Z,3324.00
2023-05-05T07:06:09.491Z,3275.00
2023-05-05T07:07:09.470Z,3242.00
2023-05-05T07:08:09.464Z,3220.00
2023-05-05T07:09:09.447Z,3177.00
2023-05-05T07:10:09.668Z,3157.00
2023-05-05T07:11:09.658Z,3141.00
2023-05-05T07:12:09.505Z,3114.00
2023-05-05T07:13:09.653Z,3085.00
2023-05-05T07:14:09.440Z,3060.00
2023-05-05T07:15:23.426Z,3043.00
2023-05-05T07:16:09.409Z,3028.00
2023-05-05T07:17:09.413Z,3014.00
2023-05-05T07:18:09.457Z,2983.00
2023-05-05T07:19:09.319Z,2975.00
2023-05-05T07:20:09.577Z,2951.00
2023-05-05T07:21:09.285Z,2903.00
2023-05-05T07:22:09.240Z,2913.00
2023-05-05T07:23:09.243Z,2881.00
2023-05-05T07:24:09.246Z,2874.00
2023-05-05T07:25:09.217Z,2861.00
2023-05-05T07:26:09.207Z,2845.00
2023-05-05T07:27:09.268Z,2826.00
2023-05-05T07:28:09.244Z,2809.00
2023-05-05T07:29:09.219Z,2794.00
2023-05-05T07:30:12.592Z,2797.00
2023-05-05T07:31:10.207Z,2797.00
2023-05-05T07:32:09.246Z,2789.00
2023-05-05T07:33:09.168Z,2783.00
2023-05-05T07:34:09.199Z,2771.00
2023-05-05T07:35:09.102Z,2768.00
2023-05-05T07:36:09.245Z,2751.00
2023-05-05T07:37:09.101Z,2741.00
2023-05-05T07:38:10.850Z,2689.00
2023-05-05T07:39:09.114Z,2640.00
2023-05-05T07:40:09.559Z,2705.00
2023-05-05T07:41:09.068Z,2686.00
2023-05-05T07:42:09.094Z,2658.00
2023-05-05T07:43:09.073Z,2734.00
2023-05-05T07:44:09.162Z,2648.00
2023-05-05T07:45:09.049Z,2635.00
2023-05-05T07:46:09.275Z,2584.00
2023-05-05T07:47:09.035Z,2630.00
2023-05-05T07:48:09.218Z,2632.00
2023-05-05T07:49:09.022Z,2453.00
2023-05-05T07:50:09.296Z,2194.00
2023-05-05T07:51:23.988Z,1803.00
2023-05-05T07:52:08.996Z,1772.00
2023-05-05T07:53:14.423Z,1596.00
2023-05-05T07:54:09.972Z,1451.00
2023-05-05T07:55:08.931Z,1366.00
2023-05-05T07:56:09.917Z,1308.00
2023-05-05T07:57:08.916Z,1222.00
2023-05-05T07:58:09.055Z,1079.00
2023-05-05T07:59:08.883Z,1003.00
2023-05-05T08:00:09.449Z,985.00
2023-05-05T08:01:08.852Z,975.00
2023-05-05T08:02:08.900Z,891.00
2023-05-05T08:03:11.645Z,744.00
2023-05-05T08:04:08.942Z,675.00
2023-05-05T08:05:09.180Z,570.00
2023-05-05T08:06:08.824Z,470.00
2023-05-05T08:07:08.802Z,433.00
2023-05-05T08:08:08.783Z,462.00
2023-05-05T08:09:08.824Z,454.00
2023-05-05T08:10:08.777Z,447.00
2023-05-05T08:11:08.773Z,457.00
2023-05-05T08:12:08.774Z,500.00
2023-05-05T08:13:08.841Z,535.00
2023-05-05T08:14:08.750Z,515.00
2023-05-05T08:15:09.184Z,491.00
2023-05-05T08:16:08.817Z,402.00
2023-05-05T08:17:08.718Z,400.00
2023-05-05T08:18:08.734Z,400.00
2023-05-05T08:19:21.142Z,400.00
2023-05-05T08:20:09.726Z,491.00
2023-05-05T08:21:08.701Z,496.00
2023-05-05T08:22:08.736Z,516.00
2023-05-05T08:23:08.696Z,552.00
2023-05-05T08:24:08.748Z,632.00
2023-05-05T08:25:08.897Z,694.00
2023-05-05T08:26:08.640Z,807.00
2023-05-05T08:27:08.624Z,931.00
2023-05-05T08:28:08.650Z,985.00
2023-05-05T08:29:08.608Z,1007.00
2023-05-05T08:30:08.725Z,1071.00
2023-05-05T08:31:08.728Z,1075.00
2023-05-05T08:32:08.612Z,1106.00
2023-05-05T08:33:08.623Z,1079.00
2023-05-05T08:34:08.546Z,1112.00
2023-05-05T08:35:08.896Z,1193.00
2023-05-05T08:36:08.498Z,1277.00
2023-05-05T08:37:08.506Z,1430.00
2023-05-05T08:38:08.474Z,1487.00
2023-05-05T08:39:08.485Z,1219.00
2023-05-05T08:40:08.476Z,1274.00
2023-05-05T08:41:08.475Z,1401.00
2023-05-05T08:42:08.519Z,1565.00
2023-05-05T08:43:08.825Z,1660.00
2023-05-05T08:44:08.556Z,1725.00
2023-05-05T08:45:08.930Z,1763.00
2023-05-05T08:46:08.561Z,1748.00
2023-05-05T08:47:08.680Z,1741.00
2023-05-05T08:48:08.630Z,1742.00
2023-05-05T08:49:08.551Z,1748.00
2023-05-05T08:50:08.528Z,1742.00
2023-05-05T08:51:08.488Z,1747.00
2023-05-05T08:52:08.525Z,1783.00
2023-05-05T08:53:08.464Z,1850.00
2023-05-05T08:54:08.961Z,1987.00
2023-05-05T08:55:08.827Z,2015.00
2023-05-05T08:56:08.479Z,1865.00
2023-05-05T08:57:08.403Z,1788.00
2023-05-05T08:58:08.470Z,1785.00
2023-05-05T08:59:08.458Z,1766.00
2023-05-05T09:00:08.475Z,1720.00
2023-05-05T09:01:08.643Z,1598.00
2023-05-05T09:02:08.621Z,1503.00
2023-05-05T09:03:08.919Z,1466.00
2023-05-05T09:04:09.548Z,1505.00
2023-05-05T09:05:08.961Z,1553.00
2023-05-05T09:06:08.940Z,1613.00
2023-05-05T09:07:08.854Z,1666.00
2023-05-05T09:08:08.896Z,1723.00
2023-05-05T09:09:08.925Z,1801.00
2023-05-05T09:10:08.999Z,1868.00
2023-05-05T09:11:09.077Z,1916.00
2023-05-05T09:12:09.099Z,1956.00
2023-05-05T09:13:09.211Z,1981.00
2023-05-05T09:14:09.235Z,2013.00
2023-05-05T09:15:09.548Z,2032.00
2023-05-05T09:16:09.310Z,2027.00
2023-05-05T09:17:09.453Z,2053.00
2023-05-05T09:18:09.493Z,2083.00
2023-05-05T09:19:09.518Z,2145.00
2023-05-05T09:20:09.667Z,2170.00
2023-05-05T09:21:09.602Z,2198.00
2023-05-05T09:22:09.810Z,2193.00
2023-05-05T09:23:09.744Z,2204.00
2023-05-05T09:24:09.999Z,2215.00
2023-05-05T09:25:10.283Z,2225.00
2023-05-05T09:26:10.081Z,2207.00
2023-05-05T09:27:10.121Z,2215.00
2023-05-05T09:28:10.230Z,2199.00
2023-05-05T09:29:10.287Z,2201.00
2023-05-05T09:30:10.086Z,2202.00
2023-05-05T09:31:10.250Z,2210.00
2023-05-05T09:32:10.248Z,2226.00
2023-05-05T09:33:10.253Z,2249.00
2023-05-05T09:34:10.066Z,2289.00
2023-05-05T09:35:10.306Z,2288.00
2023-05-05T09:36:10.334Z,2297.00
2023-05-05T09:37:10.345Z,2303.00
2023-05-05T09:38:10.323Z,2295.00
2023-05-05T09:39:10.396Z,2300.00
2023-05-05T09:40:10.372Z,2327.00
2023-05-05T09:41:10.359Z,2328.00
2023-05-05T09:42:10.346Z,2330.00
2023-05-05T09:43:11.055Z,2305.00
2023-05-05T09:44:10.466Z,2315.00
2023-05-05T09:45:10.566Z,2285.00
2023-05-05T09:46:10.364Z,2251.00
2023-05-05T09:47:25.967Z,2249.00
2023-05-05T09:48:11.406Z,2250.00
2023-05-05T09:49:10.294Z,2252.00
2023-05-05T09:50:10.348Z,2232.00
2023-05-05T09:51:10.334Z,2270.00
2023-05-05T09:52:10.348Z,2431.00
2023-05-05T09:53:10.266Z,2571.00
2023-05-05T09:54:10.239Z,2625.00
2023-05-05T09:55:10.235Z,2679.00
2023-05-05T09:56:10.303Z,2559.00
2023-05-05T09:57:11.109Z,2496.00
2023-05-05T09:58:10.401Z,2501.00
2023-05-05T09:59:10.443Z,2459.00
2023-05-05T10:00:10.727Z,2452.00
2023-05-05T10:01:10.777Z,2456.00
2023-05-05T10:02:10.485Z,2467.00
2023-05-05T10:03:10.502Z,2460.00
2023-05-05T10:04:10.468Z,2447.00
2023-05-05T10:05:10.510Z,2418.00
2023-05-05T10:06:10.426Z,2430.00
2023-05-05T10:07:11.080Z,2430.00
2023-05-05T10:08:10.467Z,2438.00
2023-05-05T10:09:11.039Z,2457.00
2023-05-05T10:10:10.578Z,2510.00
2023-05-05T10:11:10.398Z,2541.00
2023-05-05T10:12:10.324Z,2541.00
2023-05-05T10:13:10.333Z,2548.00
2023-05-05T10:14:10.280Z,2533.00
2023-05-05T10:15:10.274Z,2534.00
2023-05-05T10:16:10.289Z,2542.00
2023-05-05T10:17:10.230Z,2548.00
2023-05-05T10:18:10.219Z,2567.00
2023-05-05T10:19:10.209Z,2619.00
2023-05-05T10:20:10.954Z,2632.00
2023-05-05T10:21:10.205Z,2649.00
2023-05-05T10:22:10.253Z,2661.00
2023-05-05T10:23:10.322Z,2699.00
2023-05-05T10:24:10.190Z,2727.00
2023-05-05T10:25:10.083Z,2780.00
2023-05-05T10:26:10.084Z,2832.00
2023-05-05T10:27:12.123Z,2834.00
2023-05-05T10:28:10.365Z,2851.00
2023-05-05T10:29:10.257Z,2886.00
2023-05-05T10:30:10.353Z,2942.00
2023-05-05T10:31:24.431Z,3023.00
2023-05-05T10:32:33.431Z,2840.00
2023-05-05T10:34:10.272Z,2840.00
2023-05-05T10:35:10.038Z,2871.00
2023-05-05T10:36:09.983Z,2931.00
2023-05-05T10:37:09.962Z,3008.00
2023-05-05T10:38:09.944Z,3165.00
2023-05-05T10:39:09.921Z,3204.00
2023-05-05T10:40:10.165Z,2654.00
2023-05-05T10:41:09.955Z,2525.00
2023-05-05T10:42:09.869Z,2530.00
2023-05-05T10:43:09.828Z,2491.00
2023-05-05T10:44:09.830Z,2431.00
2023-05-05T10:45:09.885Z,2078.00
2023-05-05T10:46:09.825Z,1767.00
2023-05-05T10:47:09.780Z,1445.00
2023-05-05T10:48:09.892Z,1323.00
2023-05-05T10:49:11.650Z,1233.00
2023-05-05T10:50:10.021Z,1188.00
2023-05-05T10:51:09.839Z,1201.00
2023-05-05T10:52:09.703Z,1267.00
2023-05-05T10:53:09.673Z,1271.00
2023-05-05T10:54:09.770Z,1275.00
2023-05-05T10:55:09.999Z,1312.00
2023-05-05T10:56:09.633Z,1394.00
2023-05-05T10:57:09.632Z,1549.00
2023-05-05T10:58:09.599Z,1797.00
2023-05-05T10:59:09.579Z,1926.00
2023-05-05T11:00:09.753Z,2032.00
2023-05-05T11:01:09.594Z,2116.00
2023-05-05T11:02:09.526Z,2143.00
2023-05-05T11:03:09.627Z,2191.00
2023-05-05T11:04:09.593Z,2279.00
2023-05-05T11:05:09.528Z,2297.00
2023-05-05T11:06:09.480Z,2421.00
2023-05-05T11:07:12.699Z,2497.00
2023-05-05T11:08:10.569Z,2498.00
2023-05-05T11:09:09.467Z,2513.00
2023-05-05T11:10:09.580Z,2549.00
2023-05-05T11:11:09.393Z,2643.00
2023-05-05T11:12:09.480Z,2766.00
2023-05-05T11:13:09.377Z,2793.00
2023-05-05T11:14:09.357Z,2753.00
2023-05-05T11:15:09.349Z,2749.00
2023-05-05T11:16:09.331Z,2719.00
2023-05-05T11:17:09.984Z,2825.00
2023-05-05T11:18:09.417Z,2803.00
2023-05-05T11:19:09.475Z,2881.00
2023-05-05T11:20:09.700Z,2977.00
2023-05-05T11:21:09.540Z,3013.00
2023-05-05T11:22:09.570Z,3030.00
2023-05-05T11:23:09.635Z,3071.00
2023-05-05T11:24:09.670Z,3110.00
2023-05-05T11:25:09.726Z,3031.00
2023-05-05T11:26:09.765Z,2938.00
2023-05-05T11:27:09.792Z,2954.00
2023-05-05T11:28:10.013Z,3005.00
2023-05-05T11:29:09.907Z,2992.00
2023-05-05T11:30:10.331Z,3040.00
2023-05-05T11:31:10.043Z,3058.00
2023-05-05T11:32:10.027Z,3110.00
2023-05-05T11:33:10.064Z,3161.00
2023-05-05T11:34:10.098Z,3089.00
2023-05-05T11:35:10.157Z,2929.00
2023-05-05T11:36:10.227Z,2788.00
2023-05-05T11:37:10.309Z,2611.00
2023-05-05T11:38:10.289Z,2405.00
2023-05-05T11:39:10.368Z,2271.00
2023-05-05T11:40:10.526Z,2114.00
2023-05-05T11:41:10.422Z,1934.00
2023-05-05T11:42:11.068Z,1772.00
2023-05-05T11:43:10.518Z,1676.00
2023-05-05T11:44:10.757Z,1547.00
2023-05-05T11:45:10.595Z,1459.00
2023-05-05T11:46:10.671Z,1335.00
2023-05-05T11:47:10.690Z,1249.00
2023-05-05T11:48:10.606Z,1185.00
2023-05-05T11:49:10.566Z,1093.00
2023-05-05T11:50:10.587Z,1045.00
2023-05-05T11:51:10.563Z,977.00
2023-05-05T11:52:10.529Z,977.00
2023-05-05T11:53:10.518Z,977.00
2023-05-05T11:54:10.506Z,938.00
2023-05-05T11:55:10.521Z,911.00
2023-05-05T11:56:10.497Z,891.00
2023-05-05T11:57:10.490Z,910.00
2023-05-05T11:58:10.508Z,877.00
2023-05-05T11:59:10.509Z,841.00
2023-05-05T12:00:10.811Z,841.00
2023-05-05T12:01:10.419Z,862.00
2023-05-05T12:02:10.435Z,894.00
2023-05-05T12:03:10.444Z,865.00
2023-05-05T12:04:10.538Z,844.00
2023-05-05T12:05:10.354Z,845.00
2023-05-05T12:06:10.317Z,787.00
2023-05-05T12:07:10.316Z,781.00
2023-05-05T12:08:10.289Z,764.00